sensor_id;sensor_type;location;lat;lon;timestamp;P1;durP1;ratioP1;P2;durP2;ratioP2
1679;SDS011;838;51.794;12.258;2023-07-09T00:01:54;5.50;;;4.60;;
1679;SDS011;838;51.794;12.258;2023-07-09T00:04:20;6.00;;;4.80;;
1679;SDS011;838;51.794;12.258;2023-07-09T00:06:46;5.83;;;4.97;;
1679;SDS011;838;51.794;12.258;2023-07-09T00:09:18;5.20;;;4.70;;
1679;SDS011;838;51.794;12.258;2023-07-09T00:11:46;5.73;;;4.90;;
1679;SDS011;838;51.794;12.258;2023-07-09T00:14:13;6.50;;;4.90;;
1679;SDS011;838;51.794;12.258;2023-07-09T00:16:40;4.90;;;4.40;;
1679;SDS011;838;51.794;12.258;2023-07-09T00:19:10;4.93;;;3.90;;
1679;SDS011;838;51.794;12.258;2023-07-09T00:21:38;4.83;;;4.33;;
1679;SDS011;838;51.794;12.258;2023-07-09T00:24:05;6.10;;;4.43;;
1679;SDS011;838;51.794;12.258;2023-07-09T00:26:32;6.03;;;4.90;;
1679;SDS011;838;51.794;12.258;2023-07-09T00:29:01;7.27;;;3.97;;
1679;SDS011;838;51.794;12.258;2023-07-09T00:31:27;5.70;;;4.50;;
1679;SDS011;838;51.794;12.258;2023-07-09T00:33:52;6.00;;;5.13;;
1679;SDS011;838;51.794;12.258;2023-07-09T00:36:28;5.37;;;4.20;;
1679;SDS011;838;51.794;12.258;2023-07-09T00:38:56;5.70;;;4.43;;
1679;SDS011;838;51.794;12.258;2023-07-09T00:41:31;5.70;;;4.90;;
1679;SDS011;838;51.794;12.258;2023-07-09T00:43:59;6.73;;;4.63;;
1679;SDS011;838;51.794;12.258;2023-07-09T00:49:11;5.97;;;4.60;;
1679;SDS011;838;51.794;12.258;2023-07-09T00:51:43;5.20;;;4.33;;
1679;SDS011;838;51.794;12.258;2023-07-09T00:54:27;5.60;;;4.50;;
1679;SDS011;838;51.794;12.258;2023-07-09T00:57:11;6.33;;;4.50;;
1679;SDS011;838;51.794;12.258;2023-07-09T00:59:57;5.23;;;4.27;;
1679;SDS011;838;51.794;12.258;2023-07-09T01:02:37;6.10;;;4.90;;
1679;SDS011;838;51.794;12.258;2023-07-09T01:05:10;6.30;;;4.80;;
1679;SDS011;838;51.794;12.258;2023-07-09T01:07:38;8.30;;;4.87;;
1679;SDS011;838;51.794;12.258;2023-07-09T01:10:05;5.23;;;4.30;;
1679;SDS011;838;51.794;12.258;2023-07-09T01:12:31;5.00;;;4.50;;
1679;SDS011;838;51.794;12.258;2023-07-09T01:14:57;5.47;;;4.97;;
1679;SDS011;838;51.794;12.258;2023-07-09T01:17:25;5.00;;;4.27;;
1679;SDS011;838;51.794;12.258;2023-07-09T01:19:53;7.80;;;5.50;;
1679;SDS011;838;51.794;12.258;2023-07-09T01:22:21;6.00;;;5.40;;
1679;SDS011;838;51.794;12.258;2023-07-09T01:27:37;5.70;;;4.10;;
1679;SDS011;838;51.794;12.258;2023-07-09T01:30:09;6.93;;;5.07;;
1679;SDS011;838;51.794;12.258;2023-07-09T01:32:40;8.00;;;4.70;;
1679;SDS011;838;51.794;12.258;2023-07-09T01:35:12;5.47;;;4.37;;
1679;SDS011;838;51.794;12.258;2023-07-09T01:37:40;5.37;;;4.70;;
1679;SDS011;838;51.794;12.258;2023-07-09T01:40:07;5.40;;;4.40;;
1679;SDS011;838;51.794;12.258;2023-07-09T01:42:35;5.20;;;4.70;;
1679;SDS011;838;51.794;12.258;2023-07-09T01:45:03;6.30;;;4.70;;
1679;SDS011;838;51.794;12.258;2023-07-09T01:47:30;6.40;;;5.50;;
1679;SDS011;838;51.794;12.258;2023-07-09T01:49:57;5.60;;;5.00;;
1679;SDS011;838;51.794;12.258;2023-07-09T01:52:26;8.03;;;4.50;;
1679;SDS011;838;51.794;12.258;2023-07-09T01:54:54;7.17;;;4.63;;
1679;SDS011;838;51.794;12.258;2023-07-09T01:57:27;6.43;;;5.27;;
1679;SDS011;838;51.794;12.258;2023-07-09T02:00:04;5.87;;;4.80;;
1679;SDS011;838;51.794;12.258;2023-07-09T02:02:35;6.23;;;5.00;;
1679;SDS011;838;51.794;12.258;2023-07-09T02:05:04;5.90;;;4.50;;
1679;SDS011;838;51.794;12.258;2023-07-09T02:07:30;6.00;;;4.50;;
1679;SDS011;838;51.794;12.258;2023-07-09T02:09:56;5.90;;;4.70;;
1679;SDS011;838;51.794;12.258;2023-07-09T02:12:23;6.03;;;4.70;;
1679;SDS011;838;51.794;12.258;2023-07-09T02:14:50;6.50;;;4.63;;
1679;SDS011;838;51.794;12.258;2023-07-09T02:17:16;7.33;;;5.40;;
1679;SDS011;838;51.794;12.258;2023-07-09T02:19:42;5.20;;;3.97;;
1679;SDS011;838;51.794;12.258;2023-07-09T02:22:08;5.33;;;4.57;;
1679;SDS011;838;51.794;12.258;2023-07-09T02:24:35;5.23;;;4.10;;
1679;SDS011;838;51.794;12.258;2023-07-09T02:27:03;6.43;;;4.77;;
1679;SDS011;838;51.794;12.258;2023-07-09T02:29:31;4.93;;;4.00;;
1679;SDS011;838;51.794;12.258;2023-07-09T02:31:57;5.17;;;4.67;;
1679;SDS011;838;51.794;12.258;2023-07-09T02:34:25;5.43;;;4.93;;
1679;SDS011;838;51.794;12.258;2023-07-09T02:36:52;6.93;;;5.33;;
1679;SDS011;838;51.794;12.258;2023-07-09T02:39:19;5.97;;;4.40;;
1679;SDS011;838;51.794;12.258;2023-07-09T02:41:45;5.37;;;4.60;;
1679;SDS011;838;51.794;12.258;2023-07-09T02:44:12;6.73;;;5.23;;
1679;SDS011;838;51.794;12.258;2023-07-09T02:46:38;6.43;;;4.60;;
1679;SDS011;838;51.794;12.258;2023-07-09T02:49:04;6.00;;;5.27;;
1679;SDS011;838;51.794;12.258;2023-07-09T02:51:31;5.57;;;5.07;;
1679;SDS011;838;51.794;12.258;2023-07-09T02:53:57;5.70;;;4.47;;
1679;SDS011;838;51.794;12.258;2023-07-09T02:56:25;5.60;;;5.10;;
1679;SDS011;838;51.794;12.258;2023-07-09T02:58:51;6.53;;;4.83;;
1679;SDS011;838;51.794;12.258;2023-07-09T03:01:17;6.60;;;5.60;;
1679;SDS011;838;51.794;12.258;2023-07-09T03:03:50;6.13;;;5.53;;
1679;SDS011;838;51.794;12.258;2023-07-09T03:06:20;6.73;;;5.43;;
1679;SDS011;838;51.794;12.258;2023-07-09T03:08:46;6.37;;;5.43;;
1679;SDS011;838;51.794;12.258;2023-07-09T03:11:13;6.07;;;5.47;;
1679;SDS011;838;51.794;12.258;2023-07-09T03:13:40;7.13;;;5.57;;
1679;SDS011;838;51.794;12.258;2023-07-09T03:16:06;5.73;;;5.13;;
1679;SDS011;838;51.794;12.258;2023-07-09T03:18:31;6.00;;;5.13;;
1679;SDS011;838;51.794;12.258;2023-07-09T03:20:57;6.47;;;5.10;;
1679;SDS011;838;51.794;12.258;2023-07-09T03:23:23;6.23;;;4.97;;
1679;SDS011;838;51.794;12.258;2023-07-09T03:25:49;6.30;;;5.70;;
1679;SDS011;838;51.794;12.258;2023-07-09T03:28:15;6.00;;;5.40;;
1679;SDS011;838;51.794;12.258;2023-07-09T03:30:44;7.00;;;5.30;;
1679;SDS011;838;51.794;12.258;2023-07-09T03:33:12;6.53;;;4.90;;
1679;SDS011;838;51.794;12.258;2023-07-09T03:35:39;5.87;;;4.70;;
1679;SDS011;838;51.794;12.258;2023-07-09T03:38:05;5.80;;;5.20;;
1679;SDS011;838;51.794;12.258;2023-07-09T03:40:32;8.60;;;5.60;;
1679;SDS011;838;51.794;12.258;2023-07-09T03:42:58;5.77;;;4.80;;
1679;SDS011;838;51.794;12.258;2023-07-09T03:45:24;5.97;;;4.97;;
1679;SDS011;838;51.794;12.258;2023-07-09T03:47:50;6.43;;;5.33;;
1679;SDS011;838;51.794;12.258;2023-07-09T03:50:16;8.07;;;5.97;;
1679;SDS011;838;51.794;12.258;2023-07-09T03:52:42;9.80;;;5.50;;
1679;SDS011;838;51.794;12.258;2023-07-09T03:55:08;6.30;;;5.27;;
1679;SDS011;838;51.794;12.258;2023-07-09T03:57:34;6.00;;;5.40;;
1679;SDS011;838;51.794;12.258;2023-07-09T04:00:01;5.80;;;5.20;;
1679;SDS011;838;51.794;12.258;2023-07-09T04:02:29;5.87;;;5.27;;
1679;SDS011;838;51.794;12.258;2023-07-09T04:04:55;5.73;;;5.13;;
1679;SDS011;838;51.794;12.258;2023-07-09T04:07:21;6.47;;;4.97;;
1679;SDS011;838;51.794;12.258;2023-07-09T04:09:48;6.50;;;5.90;;
1679;SDS011;838;51.794;12.258;2023-07-09T04:12:14;6.63;;;5.17;;
1679;SDS011;838;51.794;12.258;2023-07-09T04:14:39;5.80;;;5.10;;
1679;SDS011;838;51.794;12.258;2023-07-09T04:17:06;6.20;;;5.40;;
1679;SDS011;838;51.794;12.258;2023-07-09T04:19:31;5.70;;;4.97;;
1679;SDS011;838;51.794;12.258;2023-07-09T04:21:57;5.77;;;5.17;;
1679;SDS011;838;51.794;12.258;2023-07-09T04:24:23;6.87;;;5.70;;
1679;SDS011;838;51.794;12.258;2023-07-09T04:26:48;5.70;;;5.10;;
1679;SDS011;838;51.794;12.258;2023-07-09T04:29:14;6.00;;;5.40;;
1679;SDS011;838;51.794;12.258;2023-07-09T04:31:40;5.67;;;5.07;;
1679;SDS011;838;51.794;12.258;2023-07-09T04:34:06;6.97;;;5.83;;
1679;SDS011;838;51.794;12.258;2023-07-09T04:36:32;5.40;;;4.90;;
1679;SDS011;838;51.794;12.258;2023-07-09T04:38:58;5.47;;;4.63;;
1679;SDS011;838;51.794;12.258;2023-07-09T04:41:24;6.90;;;5.33;;
1679;SDS011;838;51.794;12.258;2023-07-09T04:43:50;7.00;;;5.10;;
1679;SDS011;838;51.794;12.258;2023-07-09T04:46:16;6.83;;;5.60;;
1679;SDS011;838;51.794;12.258;2023-07-09T04:48:42;5.80;;;5.13;;
1679;SDS011;838;51.794;12.258;2023-07-09T04:51:08;7.60;;;5.30;;
1679;SDS011;838;51.794;12.258;2023-07-09T04:53:34;6.03;;;5.43;;
1679;SDS011;838;51.794;12.258;2023-07-09T04:56:03;6.30;;;5.10;;
1679;SDS011;838;51.794;12.258;2023-07-09T04:58:29;6.70;;;5.43;;
1679;SDS011;838;51.794;12.258;2023-07-09T05:00:59;6.53;;;5.47;;
1679;SDS011;838;51.794;12.258;2023-07-09T05:03:25;6.17;;;5.13;;
1679;SDS011;838;51.794;12.258;2023-07-09T05:05:52;6.37;;;5.33;;
1679;SDS011;838;51.794;12.258;2023-07-09T05:08:18;5.43;;;4.93;;
1679;SDS011;838;51.794;12.258;2023-07-09T05:10:44;5.20;;;4.60;;
1679;SDS011;838;51.794;12.258;2023-07-09T05:13:12;5.50;;;4.73;;
1679;SDS011;838;51.794;12.258;2023-07-09T05:15:41;5.43;;;4.93;;
1679;SDS011;838;51.794;12.258;2023-07-09T05:18:11;6.47;;;5.30;;
1679;SDS011;838;51.794;12.258;2023-07-09T05:20:39;6.53;;;5.83;;
1679;SDS011;838;51.794;12.258;2023-07-09T05:23:05;6.80;;;6.10;;
1679;SDS011;838;51.794;12.258;2023-07-09T05:25:31;5.23;;;4.73;;
1679;SDS011;838;51.794;12.258;2023-07-09T05:27:57;6.17;;;4.90;;
1679;SDS011;838;51.794;12.258;2023-07-09T05:30:22;7.83;;;5.10;;
1679;SDS011;838;51.794;12.258;2023-07-09T05:32:51;5.50;;;4.83;;
1679;SDS011;838;51.794;12.258;2023-07-09T05:35:22;5.87;;;4.87;;
1679;SDS011;838;51.794;12.258;2023-07-09T05:37:50;6.50;;;5.37;;
1679;SDS011;838;51.794;12.258;2023-07-09T05:40:16;5.50;;;5.00;;
1679;SDS011;838;51.794;12.258;2023-07-09T05:42:42;7.37;;;5.53;;
1679;SDS011;838;51.794;12.258;2023-07-09T05:45:08;6.00;;;5.40;;
1679;SDS011;838;51.794;12.258;2023-07-09T05:47:34;6.97;;;5.07;;
1679;SDS011;838;51.794;12.258;2023-07-09T05:50:00;6.23;;;5.10;;
1679;SDS011;838;51.794;12.258;2023-07-09T05:52:25;5.77;;;5.17;;
1679;SDS011;838;51.794;12.258;2023-07-09T05:54:55;6.20;;;5.47;;
1679;SDS011;838;51.794;12.258;2023-07-09T05:57:21;6.60;;;5.20;;
1679;SDS011;838;51.794;12.258;2023-07-09T05:59:48;5.57;;;5.07;;
1679;SDS011;838;51.794;12.258;2023-07-09T06:02:14;6.10;;;5.50;;
1679;SDS011;838;51.794;12.258;2023-07-09T06:04:41;5.50;;;5.00;;
1679;SDS011;838;51.794;12.258;2023-07-09T06:07:08;6.33;;;5.73;;
1679;SDS011;838;51.794;12.258;2023-07-09T06:09:34;6.03;;;5.53;;
1679;SDS011;838;51.794;12.258;2023-07-09T06:12:01;5.33;;;4.83;;
1679;SDS011;838;51.794;12.258;2023-07-09T06:14:27;5.97;;;5.37;;
1679;SDS011;838;51.794;12.258;2023-07-09T06:16:56;6.20;;;5.47;;
1679;SDS011;838;51.794;12.258;2023-07-09T06:19:22;6.50;;;5.03;;
1679;SDS011;838;51.794;12.258;2023-07-09T06:21:48;5.23;;;4.70;;
1679;SDS011;838;51.794;12.258;2023-07-09T06:24:17;6.27;;;5.60;;
1679;SDS011;838;51.794;12.258;2023-07-09T06:26:42;5.83;;;5.23;;
1679;SDS011;838;51.794;12.258;2023-07-09T06:29:14;6.77;;;5.53;;
1679;SDS011;838;51.794;12.258;2023-07-09T06:31:40;5.80;;;4.80;;
1679;SDS011;838;51.794;12.258;2023-07-09T06:34:07;6.03;;;4.90;;
1679;SDS011;838;51.794;12.258;2023-07-09T06:36:37;5.03;;;4.53;;
1679;SDS011;838;51.794;12.258;2023-07-09T06:39:05;5.83;;;5.23;;
1679;SDS011;838;51.794;12.258;2023-07-09T06:41:31;5.10;;;4.60;;
1679;SDS011;838;51.794;12.258;2023-07-09T06:44:04;5.40;;;4.77;;
1679;SDS011;838;51.794;12.258;2023-07-09T06:46:33;5.40;;;4.90;;
1679;SDS011;838;51.794;12.258;2023-07-09T06:48:59;5.90;;;5.03;;
1679;SDS011;838;51.794;12.258;2023-07-09T06:51:25;5.97;;;5.10;;
1679;SDS011;838;51.794;12.258;2023-07-09T06:53:51;6.60;;;5.47;;
1679;SDS011;838;51.794;12.258;2023-07-09T06:56:17;6.33;;;5.40;;
1679;SDS011;838;51.794;12.258;2023-07-09T06:58:43;5.37;;;4.87;;
1679;SDS011;838;51.794;12.258;2023-07-09T07:01:11;5.77;;;5.27;;
1679;SDS011;838;51.794;12.258;2023-07-09T07:03:37;5.10;;;4.33;;
1679;SDS011;838;51.794;12.258;2023-07-09T07:06:03;6.23;;;5.63;;
1679;SDS011;838;51.794;12.258;2023-07-09T07:08:31;5.27;;;4.77;;
1679;SDS011;838;51.794;12.258;2023-07-09T07:10:58;5.03;;;4.53;;
1679;SDS011;838;51.794;12.258;2023-07-09T07:13:31;5.50;;;4.80;;
1679;SDS011;838;51.794;12.258;2023-07-09T07:16:00;5.40;;;4.80;;
1679;SDS011;838;51.794;12.258;2023-07-09T07:18:27;5.80;;;4.93;;
1679;SDS011;838;51.794;12.258;2023-07-09T07:20:55;4.83;;;4.40;;
1679;SDS011;838;51.794;12.258;2023-07-09T07:23:21;5.40;;;4.73;;
1679;SDS011;838;51.794;12.258;2023-07-09T07:25:48;6.00;;;5.43;;
1679;SDS011;838;51.794;12.258;2023-07-09T07:28:14;5.60;;;5.10;;
1679;SDS011;838;51.794;12.258;2023-07-09T07:30:47;5.60;;;5.07;;
1679;SDS011;838;51.794;12.258;2023-07-09T07:33:33;5.57;;;4.63;;
1679;SDS011;838;51.794;12.258;2023-07-09T07:36:17;6.03;;;4.70;;
1679;SDS011;838;51.794;12.258;2023-07-09T07:38:52;5.57;;;5.07;;
1679;SDS011;838;51.794;12.258;2023-07-09T07:41:24;6.07;;;5.00;;
1679;SDS011;838;51.794;12.258;2023-07-09T07:43:54;5.10;;;4.60;;
1679;SDS011;838;51.794;12.258;2023-07-09T07:46:19;4.80;;;4.30;;
1679;SDS011;838;51.794;12.258;2023-07-09T07:48:58;4.77;;;4.27;;
1679;SDS011;838;51.794;12.258;2023-07-09T08:05:11;4.97;;;4.13;;
1679;SDS011;838;51.794;12.258;2023-07-09T08:07:56;4.63;;;4.13;;
1679;SDS011;838;51.794;12.258;2023-07-09T08:11:04;4.37;;;3.97;;
1679;SDS011;838;51.794;12.258;2023-07-09T08:14:01;4.93;;;4.40;;
1679;SDS011;838;51.794;12.258;2023-07-09T08:16:59;5.73;;;4.30;;
1679;SDS011;838;51.794;12.258;2023-07-09T08:22:37;5.27;;;4.17;;
1679;SDS011;838;51.794;12.258;2023-07-09T08:29:19;5.40;;;4.40;;
1679;SDS011;838;51.794;12.258;2023-07-09T08:31:53;4.40;;;3.90;;
1679;SDS011;838;51.794;12.258;2023-07-09T08:58:33;4.37;;;3.70;;
1679;SDS011;838;51.794;12.258;2023-07-09T09:02:03;4.80;;;3.60;;
1679;SDS011;838;51.794;12.258;2023-07-09T09:07:49;5.67;;;3.67;;
1679;SDS011;838;51.794;12.258;2023-07-09T09:14:27;4.13;;;3.00;;
1679;SDS011;838;51.794;12.258;2023-07-09T09:17:26;3.60;;;3.20;;
1679;SDS011;838;51.794;12.258;2023-07-09T09:20:39;4.00;;;3.03;;
1679;SDS011;838;51.794;12.258;2023-07-09T09:26:49;3.80;;;2.90;;
1679;SDS011;838;51.794;12.258;2023-07-09T09:29:23;4.10;;;2.80;;
1679;SDS011;838;51.794;12.258;2023-07-09T09:32:05;4.03;;;2.97;;
1679;SDS011;838;51.794;12.258;2023-07-09T09:35:10;3.80;;;2.80;;
1679;SDS011;838;51.794;12.258;2023-07-09T09:38:30;3.13;;;2.77;;
1679;SDS011;838;51.794;12.258;2023-07-09T09:41:13;3.53;;;2.87;;
1679;SDS011;838;51.794;12.258;2023-07-09T09:47:28;4.30;;;3.43;;
1679;SDS011;838;51.794;12.258;2023-07-09T09:50:18;3.37;;;2.40;;
1679;SDS011;838;51.794;12.258;2023-07-09T09:52:51;3.27;;;2.27;;
1679;SDS011;838;51.794;12.258;2023-07-09T09:55:30;3.37;;;2.37;;
1679;SDS011;838;51.794;12.258;2023-07-09T09:58:00;3.40;;;2.40;;
1679;SDS011;838;51.794;12.258;2023-07-09T10:01:11;3.60;;;3.03;;
1679;SDS011;838;51.794;12.258;2023-07-09T10:04:03;3.37;;;2.77;;
1679;SDS011;838;51.794;12.258;2023-07-09T10:06:34;3.67;;;2.70;;
1679;SDS011;838;51.794;12.258;2023-07-09T10:11:47;3.43;;;2.77;;
1679;SDS011;838;51.794;12.258;2023-07-09T10:39:50;3.70;;;3.23;;
1679;SDS011;838;51.794;12.258;2023-07-09T10:42:25;3.60;;;2.70;;
1679;SDS011;838;51.794;12.258;2023-07-09T10:48:14;3.63;;;3.00;;
1679;SDS011;838;51.794;12.258;2023-07-09T10:50:49;3.40;;;2.33;;
1679;SDS011;838;51.794;12.258;2023-07-09T10:59:53;4.03;;;2.37;;
1679;SDS011;838;51.794;12.258;2023-07-09T11:02:29;4.60;;;3.20;;
1679;SDS011;838;51.794;12.258;2023-07-09T11:05:06;3.70;;;2.90;;
1679;SDS011;838;51.794;12.258;2023-07-09T11:08:03;4.70;;;2.90;;
1679;SDS011;838;51.794;12.258;2023-07-09T11:10:56;3.50;;;2.90;;
1679;SDS011;838;51.794;12.258;2023-07-09T11:16:30;4.90;;;2.87;;
1679;SDS011;838;51.794;12.258;2023-07-09T11:19:43;3.57;;;2.10;;
1679;SDS011;838;51.794;12.258;2023-07-09T11:22:15;4.77;;;2.77;;
1679;SDS011;838;51.794;12.258;2023-07-09T11:24:46;4.17;;;2.90;;
1679;SDS011;838;51.794;12.258;2023-07-09T11:27:33;3.20;;;2.10;;
1679;SDS011;838;51.794;12.258;2023-07-09T11:30:58;2.77;;;2.00;;
1679;SDS011;838;51.794;12.258;2023-07-09T11:33:27;4.43;;;3.03;;
1679;SDS011;838;51.794;12.258;2023-07-09T11:36:11;3.87;;;2.90;;
1679;SDS011;838;51.794;12.258;2023-07-09T11:38:45;3.90;;;2.63;;
1679;SDS011;838;51.794;12.258;2023-07-09T11:44:23;4.10;;;2.90;;
1679;SDS011;838;51.794;12.258;2023-07-09T11:50:13;5.30;;;3.93;;
1679;SDS011;838;51.794;12.258;2023-07-09T11:53:34;4.03;;;3.07;;
1679;SDS011;838;51.794;12.258;2023-07-09T11:56:07;3.93;;;2.53;;
1679;SDS011;838;51.794;12.258;2023-07-09T11:58:36;4.80;;;3.13;;
1679;SDS011;838;51.794;12.258;2023-07-09T12:01:14;3.70;;;2.67;;
1679;SDS011;838;51.794;12.258;2023-07-09T12:03:43;4.83;;;3.07;;
1679;SDS011;838;51.794;12.258;2023-07-09T12:06:17;3.60;;;2.70;;
1679;SDS011;838;51.794;12.258;2023-07-09T12:08:50;4.10;;;3.10;;
1679;SDS011;838;51.794;12.258;2023-07-09T12:11:26;5.30;;;2.67;;
1679;SDS011;838;51.794;12.258;2023-07-09T12:14:16;3.80;;;3.07;;
1679;SDS011;838;51.794;12.258;2023-07-09T12:16:45;3.70;;;2.50;;
1679;SDS011;838;51.794;12.258;2023-07-09T12:19:13;3.57;;;2.80;;
1679;SDS011;838;51.794;12.258;2023-07-09T12:21:44;3.40;;;2.90;;
1679;SDS011;838;51.794;12.258;2023-07-09T12:24:39;4.20;;;2.73;;
1679;SDS011;838;51.794;12.258;2023-07-09T12:27:25;3.90;;;3.10;;
1679;SDS011;838;51.794;12.258;2023-07-09T12:30:03;4.03;;;3.10;;
1679;SDS011;838;51.794;12.258;2023-07-09T12:32:42;4.20;;;2.23;;
1679;SDS011;838;51.794;12.258;2023-07-09T12:35:11;4.30;;;3.00;;
1679;SDS011;838;51.794;12.258;2023-07-09T12:37:42;4.60;;;2.80;;
1679;SDS011;838;51.794;12.258;2023-07-09T12:40:21;4.27;;;3.33;;
1679;SDS011;838;51.794;12.258;2023-07-09T12:43:09;4.30;;;3.47;;
1679;SDS011;838;51.794;12.258;2023-07-09T12:45:36;5.40;;;2.50;;
1679;SDS011;838;51.794;12.258;2023-07-09T12:48:03;3.37;;;2.37;;
1679;SDS011;838;51.794;12.258;2023-07-09T12:50:30;3.90;;;2.63;;
1679;SDS011;838;51.794;12.258;2023-07-09T12:53:11;5.00;;;2.87;;
1679;SDS011;838;51.794;12.258;2023-07-09T12:55:48;4.70;;;2.90;;
1679;SDS011;838;51.794;12.258;2023-07-09T12:58:44;4.23;;;3.00;;
1679;SDS011;838;51.794;12.258;2023-07-09T13:01:16;4.30;;;3.33;;
1679;SDS011;838;51.794;12.258;2023-07-09T13:07:18;4.47;;;3.10;;
1679;SDS011;838;51.794;12.258;2023-07-09T13:10:41;4.30;;;3.03;;
1679;SDS011;838;51.794;12.258;2023-07-09T13:13:32;4.40;;;3.30;;
1679;SDS011;838;51.794;12.258;2023-07-09T13:16:37;5.50;;;3.60;;
1679;SDS011;838;51.794;12.258;2023-07-09T13:19:27;4.60;;;2.83;;
1679;SDS011;838;51.794;12.258;2023-07-09T13:25:45;4.10;;;3.30;;
1679;SDS011;838;51.794;12.258;2023-07-09T13:28:23;3.60;;;2.80;;
1679;SDS011;838;51.794;12.258;2023-07-09T13:30:55;3.77;;;2.93;;
1679;SDS011;838;51.794;12.258;2023-07-09T13:33:27;3.53;;;2.50;;
1679;SDS011;838;51.794;12.258;2023-07-09T13:35:58;4.50;;;3.00;;
1679;SDS011;838;51.794;12.258;2023-07-09T13:38:27;4.20;;;2.90;;
1679;SDS011;838;51.794;12.258;2023-07-09T13:41:13;4.47;;;3.30;;
1679;SDS011;838;51.794;12.258;2023-07-09T13:43:51;5.07;;;3.57;;
1679;SDS011;838;51.794;12.258;2023-07-09T13:46:20;4.03;;;3.00;;
1679;SDS011;838;51.794;12.258;2023-07-09T13:49:23;3.63;;;2.40;;
1679;SDS011;838;51.794;12.258;2023-07-09T13:52:34;3.60;;;2.80;;
1679;SDS011;838;51.794;12.258;2023-07-09T13:55:04;4.10;;;3.13;;
1679;SDS011;838;51.794;12.258;2023-07-09T13:57:59;3.80;;;2.40;;
1679;SDS011;838;51.794;12.258;2023-07-09T14:04:20;4.00;;;2.70;;
1679;SDS011;838;51.794;12.258;2023-07-09T14:10:41;4.23;;;3.23;;
1679;SDS011;838;51.794;12.258;2023-07-09T14:13:17;5.30;;;3.77;;
1679;SDS011;838;51.794;12.258;2023-07-09T14:15:56;3.80;;;3.13;;
1679;SDS011;838;51.794;12.258;2023-07-09T14:18:25;3.87;;;2.87;;
1679;SDS011;838;51.794;12.258;2023-07-09T14:21:09;4.30;;;3.13;;
1679;SDS011;838;51.794;12.258;2023-07-09T14:34:32;3.70;;;3.00;;
1679;SDS011;838;51.794;12.258;2023-07-09T14:37:21;4.07;;;2.70;;
1679;SDS011;838;51.794;12.258;2023-07-09T14:39:53;4.23;;;3.43;;
1679;SDS011;838;51.794;12.258;2023-07-09T14:42:49;4.23;;;3.37;;
1679;SDS011;838;51.794;12.258;2023-07-09T14:45:22;4.13;;;3.07;;
1679;SDS011;838;51.794;12.258;2023-07-09T14:47:57;3.67;;;3.00;;
1679;SDS011;838;51.794;12.258;2023-07-09T14:50:46;4.00;;;3.37;;
1679;SDS011;838;51.794;12.258;2023-07-09T14:53:28;3.73;;;3.00;;
1679;SDS011;838;51.794;12.258;2023-07-09T14:56:12;5.80;;;3.23;;
1679;SDS011;838;51.794;12.258;2023-07-09T14:59:06;5.13;;;3.70;;
1679;SDS011;838;51.794;12.258;2023-07-09T15:01:41;5.13;;;3.27;;
1679;SDS011;838;51.794;12.258;2023-07-09T15:04:22;3.50;;;3.10;;
1679;SDS011;838;51.794;12.258;2023-07-09T15:06:55;4.30;;;3.00;;
1679;SDS011;838;51.794;12.258;2023-07-09T15:09:23;5.20;;;3.70;;
1679;SDS011;838;51.794;12.258;2023-07-09T15:18:06;4.00;;;2.90;;
1679;SDS011;838;51.794;12.258;2023-07-09T15:20:35;3.60;;;3.10;;
1679;SDS011;838;51.794;12.258;2023-07-09T15:23:41;3.80;;;3.10;;
1679;SDS011;838;51.794;12.258;2023-07-09T15:26:13;4.37;;;3.37;;
1679;SDS011;838;51.794;12.258;2023-07-09T15:28:49;5.37;;;3.07;;
1679;SDS011;838;51.794;12.258;2023-07-09T15:31:18;4.00;;;2.70;;
1679;SDS011;838;51.794;12.258;2023-07-09T15:33:53;4.30;;;2.70;;
1679;SDS011;838;51.794;12.258;2023-07-09T15:36:24;5.50;;;3.13;;
1679;SDS011;838;51.794;12.258;2023-07-09T15:38:50;4.20;;;2.97;;
1679;SDS011;838;51.794;12.258;2023-07-09T15:41:15;4.20;;;3.00;;
1679;SDS011;838;51.794;12.258;2023-07-09T15:47:25;4.60;;;3.20;;
1679;SDS011;838;51.794;12.258;2023-07-09T15:49:58;4.90;;;3.10;;
1679;SDS011;838;51.794;12.258;2023-07-09T15:53:22;3.67;;;2.97;;
1679;SDS011;838;51.794;12.258;2023-07-09T15:56:13;4.10;;;2.90;;
1679;SDS011;838;51.794;12.258;2023-07-09T15:59:02;3.90;;;3.10;;
1679;SDS011;838;51.794;12.258;2023-07-09T16:11:40;3.20;;;2.77;;
1679;SDS011;838;51.794;12.258;2023-07-09T16:15:08;4.00;;;2.80;;
1679;SDS011;838;51.794;12.258;2023-07-09T16:21:25;3.60;;;2.87;;
1679;SDS011;838;51.794;12.258;2023-07-09T16:24:03;3.80;;;3.20;;
1679;SDS011;838;51.794;12.258;2023-07-09T16:27:15;4.60;;;2.57;;
1679;SDS011;838;51.794;12.258;2023-07-09T16:32:49;3.63;;;2.83;;
1679;SDS011;838;51.794;12.258;2023-07-09T16:35:56;4.17;;;3.00;;
1679;SDS011;838;51.794;12.258;2023-07-09T16:38:32;3.60;;;2.70;;
1679;SDS011;838;51.794;12.258;2023-07-09T16:41:10;4.90;;;3.03;;
1679;SDS011;838;51.794;12.258;2023-07-09T16:43:42;4.07;;;3.00;;
1679;SDS011;838;51.794;12.258;2023-07-09T16:46:29;3.80;;;3.00;;
1679;SDS011;838;51.794;12.258;2023-07-09T16:48:57;3.90;;;3.00;;
1679;SDS011;838;51.794;12.258;2023-07-09T16:51:46;4.00;;;3.43;;
1679;SDS011;838;51.794;12.258;2023-07-09T16:54:15;4.10;;;3.00;;
1679;SDS011;838;51.794;12.258;2023-07-09T16:56:50;4.30;;;2.70;;
1679;SDS011;838;51.794;12.258;2023-07-09T16:59:20;3.73;;;2.60;;
1679;SDS011;838;51.794;12.258;2023-07-09T17:01:46;3.57;;;2.40;;
1679;SDS011;838;51.794;12.258;2023-07-09T17:04:19;4.57;;;3.13;;
1679;SDS011;838;51.794;12.258;2023-07-09T17:06:52;3.60;;;2.83;;
1679;SDS011;838;51.794;12.258;2023-07-09T17:09:19;3.63;;;3.00;;
1679;SDS011;838;51.794;12.258;2023-07-09T17:11:57;3.80;;;2.83;;
1679;SDS011;838;51.794;12.258;2023-07-09T17:14:26;4.10;;;2.60;;
1679;SDS011;838;51.794;12.258;2023-07-09T17:17:10;3.97;;;3.37;;
1679;SDS011;838;51.794;12.258;2023-07-09T17:19:38;3.53;;;2.50;;
1679;SDS011;838;51.794;12.258;2023-07-09T17:25:27;3.70;;;2.77;;
1679;SDS011;838;51.794;12.258;2023-07-09T17:27:58;4.10;;;3.10;;
1679;SDS011;838;51.794;12.258;2023-07-09T17:30:26;5.30;;;3.10;;
1679;SDS011;838;51.794;12.258;2023-07-09T17:32:59;5.10;;;4.10;;
1679;SDS011;838;51.794;12.258;2023-07-09T17:35:24;9.30;;;6.23;;
1679;SDS011;838;51.794;12.258;2023-07-09T17:37:59;4.60;;;3.80;;
1679;SDS011;838;51.794;12.258;2023-07-09T17:40:35;5.07;;;4.13;;
1679;SDS011;838;51.794;12.258;2023-07-09T17:43:10;5.93;;;3.17;;
1679;SDS011;838;51.794;12.258;2023-07-09T17:45:50;4.37;;;3.13;;
1679;SDS011;838;51.794;12.258;2023-07-09T17:48:55;4.20;;;2.60;;
1679;SDS011;838;51.794;12.258;2023-07-09T17:51:39;5.53;;;3.37;;
1679;SDS011;838;51.794;12.258;2023-07-09T17:54:30;4.07;;;3.27;;
1679;SDS011;838;51.794;12.258;2023-07-09T17:57:20;4.23;;;3.27;;
1679;SDS011;838;51.794;12.258;2023-07-09T17:59:59;4.10;;;3.17;;
1679;SDS011;838;51.794;12.258;2023-07-09T18:02:26;4.83;;;3.87;;
1679;SDS011;838;51.794;12.258;2023-07-09T18:05:42;5.57;;;3.77;;
1679;SDS011;838;51.794;12.258;2023-07-09T18:08:09;5.13;;;3.23;;
1679;SDS011;838;51.794;12.258;2023-07-09T18:10:37;4.40;;;2.70;;
1679;SDS011;838;51.794;12.258;2023-07-09T18:13:31;4.47;;;3.10;;
1679;SDS011;838;51.794;12.258;2023-07-09T18:16:47;3.43;;;2.77;;
1679;SDS011;838;51.794;12.258;2023-07-09T18:19:32;4.23;;;3.23;;
1679;SDS011;838;51.794;12.258;2023-07-09T18:22:18;3.87;;;3.10;;
1679;SDS011;838;51.794;12.258;2023-07-09T18:24:58;5.13;;;3.27;;
1679;SDS011;838;51.794;12.258;2023-07-09T18:27:51;4.90;;;3.53;;
1679;SDS011;838;51.794;12.258;2023-07-09T18:30:29;4.43;;;3.40;;
1679;SDS011;838;51.794;12.258;2023-07-09T18:33:00;4.10;;;3.50;;
1679;SDS011;838;51.794;12.258;2023-07-09T18:35:53;8.80;;;7.43;;
1679;SDS011;838;51.794;12.258;2023-07-09T18:38:59;4.10;;;3.00;;
1679;SDS011;838;51.794;12.258;2023-07-09T18:41:18;4.70;;;3.27;;
1679;SDS011;838;51.794;12.258;2023-07-09T18:43:44;4.43;;;3.33;;
1679;SDS011;838;51.794;12.258;2023-07-09T18:46:20;4.57;;;3.63;;
1679;SDS011;838;51.794;12.258;2023-07-09T18:48:46;6.40;;;3.50;;